METAR Data
IDs: Format: Raw Decoded Include TAF

Data at: 1217 UTC 16 Aug 2022

KC83 161155Z AUTO 00000KT 10SM CLR 18/15 A2976 RMK AO2
KC83 161135Z AUTO 00000KT 10SM CLR 18/14 A2976 RMK AO2
KC83 161115Z AUTO 00000KT 10SM CLR 18/15 A2976 RMK AO2
KC83 161050Z AUTO 00000KT 10SM CLR 17/13 A2976 RMK AO2
KC83 161035Z AUTO 06007KT 10SM CLR 18/13 A2976 RMK AO2
KC83 161015Z AUTO 05007KT 10SM CLR 19/10 A2976 RMK AO2
KC83 160955Z AUTO 24005KT 10SM CLR 25/05 A2975 RMK AO2
KC83 160935Z AUTO 23004KT 10SM CLR 24/05 A2976 RMK AO2
KC83 160915Z AUTO 21005KT 10SM CLR 23/08 A2976 RMK AO2
KC83 160855Z AUTO 00000KT 10SM CLR 23/06 A2976 RMK AO2
KC83 160835Z AUTO VRB04KT 10SM CLR 26/05 A2976 RMK AO2
KC83 160815Z AUTO 00000G13KT 10SM CLR 28/05 A2976 RMK AO2
KC83 160755Z AUTO 24015KT 10SM CLR 28/05 A2975 RMK AO2
KC83 160735Z AUTO 24010KT 10SM CLR 28/05 A2975 RMK AO2
KC83 160710Z AUTO 24012KT 10SM CLR 29/06 A2975 RMK AO2
KC83 160655Z AUTO 24015G20KT 10SM CLR 29/06 A2975 RMK AO2
KC83 160635Z AUTO 23017KT 10SM CLR 29/07 A2975 RMK AO2
KC83 160615Z AUTO 23016G21KT 10SM CLR 29/07 A2975 RMK AO2
KC83 160555Z AUTO 23012G19KT 10SM CLR 29/08 A2976 RMK AO2
KC83 160535Z AUTO 22012KT 10SM CLR 29/08 A2976 RMK AO2
KC83 160515Z AUTO 23013G19KT 10SM CLR 29/08 A2977 RMK AO2
KC83 160455Z AUTO 24014KT 10SM CLR 29/08 A2977 RMK AO2
KC83 160435Z AUTO 23010KT 10SM CLR 28/08 A2977 RMK AO2
KC83 160415Z AUTO 22009KT 10SM CLR 28/09 A2977 RMK AO2
KC83 160355Z AUTO 23007G13KT 10SM CLR 29/08 A2977 RMK AO2
KC83 160330Z AUTO 23012KT 10SM CLR 30/09 A2976 RMK AO2
KC83 160315Z AUTO 22010KT 10SM CLR 31/08 A2976 RMK AO2
KC83 160255Z AUTO 22009KT 10SM CLR 32/08 A2976 RMK AO2
KC83 160235Z AUTO 24006KT 10SM CLR 34/09 A2975 RMK AO2
KC83 160215Z AUTO 35006KT 10SM CLR 35/07 A2975 RMK AO2
KC83 160155Z AUTO 36009KT 10SM CLR 37/04 A2974 RMK AO2
KC83 160135Z AUTO 34008KT 10SM CLR 37/03 A2974 RMK AO2
KC83 160115Z AUTO 34009KT 9SM CLR 38/04 A2974 RMK AO2
KC83 160055Z AUTO 32009KT 10SM CLR 38/04 A2975 RMK AO2
KC83 160035Z AUTO 35008KT 10SM CLR 38/04 A2975 RMK AO2
KC83 160015Z AUTO 36007G12KT 10SM CLR 38/05 A2975 RMK AO2
KC83 152350Z AUTO 01006KT 10SM CLR 38/05 A2976 RMK AO2
KC83 152335Z AUTO 01006KT 10SM CLR 38/05 A2976 RMK AO2
KC83 152315Z AUTO VRB06KT 10SM CLR 37/03 A2977 RMK AO2
KC83 152255Z AUTO 02007KT 10SM CLR 38/06 A2977 RMK AO2
KC83 152235Z AUTO 04006G12KT 10SM CLR 37/07 A2978 RMK AO2
KC83 152215Z AUTO 05007KT 10SM CLR 37/05 A2979 RMK AO2
KC83 152155Z AUTO 05009KT 10SM CLR 37/08 A2979 RMK AO2
KC83 152135Z AUTO 01009KT 10SM CLR 36/09 A2980 RMK AO2
KC83 152115Z AUTO 36007G12KT 10SM CLR 36/08 A2980 RMK AO2
KC83 152055Z AUTO 35007KT 10SM CLR 35/10 A2981 RMK AO2
KC83 152035Z AUTO 34007KT 9SM CLR 35/10 A2982 RMK AO2
KC83 152010Z AUTO 34010KT 10SM CLR 35/11 A2982 RMK AO2
KC83 151955Z AUTO 01010KT 10SM CLR 34/12 A2983 RMK AO2
KC83 151935Z AUTO 02008KT 10SM CLR 33/12 A2983 RMK AO2
KC83 151915Z AUTO 35007G12KT 9SM CLR 33/11 A2984 RMK AO2
KC83 151855Z AUTO 36009KT 10SM CLR 33/12 A2984 RMK AO2
KC83 151835Z AUTO 01007KT 330V030 10SM CLR 32/11 A2985 RMK AO2
KC83 151815Z AUTO 02007KT 9SM CLR 32/10 A2985 RMK AO2
KC83 151755Z AUTO 34007KT 9SM CLR 31/11 A2985 RMK AO2
KC83 151735Z AUTO 02005KT 10SM CLR 29/12 A2986 RMK AO2
KC83 151715Z AUTO VRB05KT 10SM CLR 29/13 A2985 RMK AO2
KC83 151655Z AUTO 00000KT 10SM CLR 28/12 A2986 RMK AO2
KC83 151630Z AUTO 00000KT 10SM CLR 25/13 A2986 RMK AO2
KC83 151615Z AUTO 00000KT 10SM CLR 24/13 A2986 RMK AO2
KC83 151555Z AUTO 00000KT 10SM CLR 23/14 A2986 RMK AO2
KC83 151535Z AUTO 00000KT 9SM CLR 21/14 A2986 RMK AO2
KC83 151515Z AUTO 00000KT 9SM CLR 20/15 A2986 RMK AO2
KC83 151455Z AUTO 00000KT 9SM CLR 19/15 A2985 RMK AO2
KC83 151435Z AUTO 00000KT 9SM CLR 18/15 A2985 RMK AO2
KC83 151415Z AUTO 00000KT 9SM CLR 17/14 A2985 RMK AO2
KC83 151355Z AUTO 00000KT 9SM CLR 15/13 A2985 RMK AO2
KC83 151335Z AUTO 11004KT 10SM CLR 16/13 A2984 RMK AO2
KC83 151315Z AUTO 06004KT 10SM CLR 17/14 A2983 RMK AO2
KC83 151250Z AUTO 00000KT 10SM CLR 16/12 A2983 RMK AO2
KC83 151235Z AUTO 00000KT 10SM CLR 15/12 A2982 RMK AO2
KC83 151215Z AUTO 10004KT 10SM CLR 16/12 A2982 RMK AO2
KC83 151155Z AUTO 00000KT 10SM CLR 19/14 A2982 RMK AO2
KC83 151135Z AUTO 00000KT 10SM CLR 19/14 A2983 RMK AO2
KC83 151115Z AUTO 00000KT 10SM CLR 17/13 A2983 RMK AO2
KC83 151055Z AUTO 00000KT 10SM CLR 18/15 A2983 RMK AO2
KC83 151035Z AUTO 00000KT 10SM CLR 18/15 A2983 RMK AO2
KC83 151015Z AUTO 00000KT 10SM CLR 18/15 A2984 RMK AO2
KC83 150955Z AUTO 00000KT 10SM CLR 19/15 A2984 RMK AO2
KC83 150935Z AUTO 00000KT 10SM CLR 19/15 A2984 RMK AO2
KC83 150910Z AUTO 07008KT 10SM CLR 23/12 A2984 RMK AO2
KC83 150855Z AUTO 23011KT 10SM CLR 25/08 A2983 RMK AO2
KC83 150835Z AUTO 23012KT 10SM CLR 25/08 A2984 RMK AO2
KC83 150815Z AUTO 23012KT 10SM CLR 25/08 A2984 RMK AO2
KC83 150755Z AUTO 24014G19KT 10SM CLR 26/07 A2983 RMK AO2
KC83 150735Z AUTO 24016KT 10SM FEW041 26/07 A2983 RMK AO2
KC83 150715Z AUTO 23017KT 10SM CLR 26/07 A2983 RMK AO2
KC83 150655Z AUTO 23015KT 10SM CLR 26/07 A2983 RMK AO2
KC83 150635Z AUTO 23017KT 10SM CLR 26/08 A2983 RMK AO2
KC83 150615Z AUTO 23017KT 10SM CLR 27/07 A2983 RMK AO2
KC83 150555Z AUTO 24016KT 10SM CLR 27/07 A2983 RMK AO2
KC83 150530Z AUTO 23015G20KT 10SM CLR 28/07 A2984 RMK AO2
KC83 150515Z AUTO 24017KT 10SM CLR 27/07 A2984 RMK AO2
KC83 150455Z AUTO 24015G21KT 10SM CLR 27/08 A2984 RMK AO2
KC83 150435Z AUTO 23016G23KT 10SM CLR 27/08 A2984 RMK AO2
KC83 150415Z AUTO 24014G20KT 10SM CLR 27/08 A2984 RMK AO2
KC83 150355Z AUTO 24014G22KT 10SM CLR 27/09 A2984 RMK AO2
KC83 150335Z AUTO 24013KT 10SM CLR 27/09 A2984 RMK AO2
KC83 150315Z AUTO 22011KT 10SM CLR 28/09 A2984 RMK AO2
KC83 150255Z AUTO 22014KT 10SM CLR 30/08 A2983 RMK AO2
KC83 150235Z AUTO 23013KT 10SM CLR 31/08 A2983 RMK AO2
KC83 150215Z AUTO 23012KT 10SM CLR 33/09 A2983 RMK AO2
KC83 150150Z AUTO 23012KT 10SM CLR 34/08 A2983 RMK AO2
KC83 150135Z AUTO 23010KT 10SM CLR 35/07 A2983 RMK AO2
KC83 150115Z AUTO 01011KT 10SM CLR 36/01 A2983 RMK AO2
KC83 150055Z AUTO 35008G13KT 10SM CLR 36/M03 A2984 RMK AO2
KC83 150035Z AUTO 36010KT 10SM CLR 37/M02 A2984 RMK AO2